createdAt,value
2022-09-27T00:00:00.139Z,980.26
2022-09-27T00:05:00.161Z,980.15
2022-09-27T00:10:00.132Z,980.1
2022-09-27T00:15:00.132Z,980.07
2022-09-27T00:20:00.150Z,979.97
2022-09-27T00:25:00.100Z,979.91
2022-09-27T00:30:00.149Z,979.87
2022-09-27T00:35:00.099Z,979.77
2022-09-27T00:40:00.125Z,979.61
2022-09-27T00:45:00.158Z,979.61
2022-09-27T00:50:00.116Z,979.51
2022-09-27T00:55:00.140Z,979.49
2022-09-27T01:00:00.166Z,979.31
2022-09-27T01:05:00.124Z,979.3
2022-09-27T01:10:00.170Z,979.22
2022-09-27T01:15:00.088Z,979.06
2022-09-27T01:20:00.103Z,979.04
2022-09-27T01:25:00.120Z,979.02
2022-09-27T01:30:00.154Z,979
2022-09-27T01:35:00.111Z,978.96
2022-09-27T01:40:00.165Z,979
2022-09-27T01:45:00.172Z,978.89
2022-09-27T01:50:00.107Z,978.75
2022-09-27T01:55:00.126Z,978.78
2022-09-27T02:00:00.233Z,978.8
2022-09-27T02:05:00.129Z,978.69
2022-09-27T02:10:00.150Z,978.56
2022-09-27T02:15:00.126Z,978.62
2022-09-27T02:20:00.116Z,978.53
2022-09-27T02:25:00.163Z,978.4
2022-09-27T02:30:00.106Z,978.36
2022-09-27T02:35:00.115Z,978.25
2022-09-27T02:40:00.130Z,978.16
2022-09-27T02:45:00.139Z,978.23
2022-09-27T02:50:00.135Z,978.15
2022-09-27T02:55:00.122Z,978.13
2022-09-27T03:00:00.116Z,978.2
2022-09-27T03:05:00.133Z,978.12
2022-09-27T03:10:00.094Z,978.11
2022-09-27T03:15:00.139Z,978.1
2022-09-27T03:20:00.143Z,978.04
2022-09-27T03:25:00.124Z,978.03
2022-09-27T03:30:00.101Z,977.58
2022-09-27T03:35:00.113Z,977.54
2022-09-27T03:40:00.112Z,977.47
2022-09-27T03:45:00.214Z,977.54
2022-09-27T03:50:00.131Z,977.57
2022-09-27T03:55:02.214Z,977.52
2022-09-27T04:00:00.157Z,977.55
2022-09-27T04:05:00.159Z,977.48
2022-09-27T04:10:00.125Z,977.45
2022-09-27T04:15:00.163Z,977.35
2022-09-27T04:20:00.117Z,977.37
2022-09-27T04:25:00.146Z,977.36
2022-09-27T04:30:00.129Z,977.26
2022-09-27T04:35:00.145Z,977.2
2022-09-27T04:40:00.150Z,977.26
2022-09-27T04:45:00.134Z,977.19
2022-09-27T04:50:00.109Z,977.18
2022-09-27T04:55:00.100Z,977.3
2022-09-27T05:00:00.136Z,977.16
2022-09-27T05:05:00.165Z,977.17
2022-09-27T05:10:00.130Z,977.18
2022-09-27T05:15:00.142Z,977.1
2022-09-27T05:20:00.083Z,977.17
2022-09-27T05:25:00.278Z,977.11
2022-09-27T05:30:00.125Z,977.2
2022-09-27T05:35:00.117Z,977.1
2022-09-27T05:40:05.474Z,977.01
2022-09-27T05:45:00.121Z,977.06
2022-09-27T05:50:00.134Z,977.07
2022-09-27T05:55:00.117Z,977.05
2022-09-27T06:00:00.144Z,977.08
2022-09-27T06:05:00.188Z,977.06
2022-09-27T06:10:00.130Z,977.08
2022-09-27T06:15:00.095Z,977.09
2022-09-27T06:20:00.102Z,977.02
2022-09-27T06:25:00.163Z,977.04
2022-09-27T06:30:00.142Z,977.08
2022-09-27T06:35:00.102Z,977.1
2022-09-27T06:40:00.136Z,977.16
2022-09-27T06:45:00.104Z,977.27
2022-09-27T06:50:00.116Z,977.25
2022-09-27T06:55:00.138Z,977.23
2022-09-27T07:00:00.222Z,977.26
2022-09-27T07:05:00.141Z,977.25
2022-09-27T07:10:00.096Z,977.36
2022-09-27T07:15:00.101Z,977.33
2022-09-27T07:20:00.129Z,977.37
2022-09-27T07:25:00.143Z,977.33
2022-09-27T07:30:00.089Z,977.49
2022-09-27T07:35:00.107Z,977.49
2022-09-27T07:40:00.095Z,977.53
2022-09-27T07:45:00.145Z,977.53
2022-09-27T07:50:00.131Z,977.61
2022-09-27T07:55:00.109Z,977.62
2022-09-27T08:00:00.123Z,977.53
2022-09-27T08:05:00.137Z,977.66
2022-09-27T08:10:00.142Z,977.6
2022-09-27T08:15:00.094Z,977.62
2022-09-27T08:20:00.103Z,977.59
2022-09-27T08:25:00.129Z,977.59
2022-09-27T08:30:00.185Z,977.71
2022-09-27T08:35:00.108Z,977.78
2022-09-27T08:40:00.128Z,977.72
2022-09-27T08:45:03.246Z,977.71
2022-09-27T08:50:00.113Z,977.76
2022-09-27T08:55:00.145Z,977.88
2022-09-27T09:00:00.174Z,977.89
2022-09-27T09:05:00.135Z,978.04
2022-09-27T09:10:00.141Z,978.08
2022-09-27T09:15:00.090Z,978.09
2022-09-27T09:20:00.130Z,978.16
2022-09-27T09:25:00.164Z,978.17
2022-09-27T09:30:00.186Z,978.27
2022-09-27T09:35:00.093Z,978.34
2022-09-27T09:40:00.135Z,978.41
2022-09-27T09:45:00.182Z,978.35
2022-09-27T09:50:00.159Z,978.45
2022-09-27T09:55:00.126Z,978.58
2022-09-27T10:00:00.199Z,978.67
2022-09-27T10:05:02.782Z,978.89
2022-09-27T10:10:00.124Z,978.78
2022-09-27T10:15:00.085Z,978.76
2022-09-27T10:20:00.123Z,978.76
2022-09-27T10:25:00.129Z,978.86
2022-09-27T10:30:00.168Z,978.77
2022-09-27T10:35:00.127Z,978.97
2022-09-27T10:40:00.100Z,978.94
2022-09-27T10:45:00.184Z,978.97
2022-09-27T10:50:00.088Z,978.99
2022-09-27T10:55:00.110Z,978.99
2022-09-27T11:00:00.145Z,978.95
2022-09-27T11:05:00.143Z,979.07
2022-09-27T11:10:00.135Z,979.11
2022-09-27T11:15:00.105Z,979.05
2022-09-27T11:20:00.144Z,979.13
2022-09-27T11:25:00.125Z,979.14
2022-09-27T11:30:00.181Z,979.09
2022-09-27T11:35:00.091Z,979.13
2022-09-27T11:40:00.150Z,979.08
2022-09-27T11:45:27.031Z,979.14
2022-09-27T11:50:00.114Z,979.18
2022-09-27T11:55:00.111Z,979.18
2022-09-27T12:00:00.166Z,979.2
2022-09-27T12:05:00.124Z,979.3
2022-09-27T12:10:00.125Z,979.33
2022-09-27T12:15:04.255Z,979.31
2022-09-27T12:20:00.088Z,979.24
2022-09-27T12:25:00.097Z,979.42
2022-09-27T12:30:00.141Z,979.44
2022-09-27T12:35:00.101Z,979.39
2022-09-27T12:40:00.098Z,979.44
2022-09-27T12:45:00.141Z,979.33
2022-09-27T12:50:01.559Z,979.33
2022-09-27T12:55:00.096Z,979.37
2022-09-27T13:00:00.148Z,979.19
2022-09-27T13:05:00.148Z,979.19
2022-09-27T13:10:00.103Z,979.17
2022-09-27T13:15:00.126Z,979.24
2022-09-27T13:20:00.121Z,979.2
2022-09-27T13:25:00.179Z,979.27
2022-09-27T13:30:00.199Z,979.22
2022-09-27T13:35:00.102Z,979.29
2022-09-27T13:40:00.196Z,979.19
2022-09-27T13:45:00.331Z,979.36
2022-09-27T13:50:00.114Z,979.34
2022-09-27T13:55:00.106Z,979.25
2022-09-27T14:00:00.166Z,979.43
2022-09-27T14:05:00.135Z,979.4
2022-09-27T14:10:00.130Z,979.35
2022-09-27T14:15:00.122Z,979.71
2022-09-27T14:20:00.094Z,979.72
2022-09-27T14:25:00.117Z,979.87
2022-09-27T14:30:00.153Z,979.75
2022-09-27T14:35:00.106Z,979.78
2022-09-27T14:40:00.107Z,979.82
2022-09-27T14:45:00.136Z,979.54
2022-09-27T14:50:00.173Z,979.83
2022-09-27T14:55:00.127Z,979.93
2022-09-27T15:00:00.139Z,979.94
2022-09-27T15:05:00.112Z,979.97
2022-09-27T15:10:00.457Z,980.02
2022-09-27T15:45:00.281Z,980.14
2022-09-27T15:50:00.123Z,980.1
2022-09-27T15:55:00.160Z,980.14
2022-09-27T16:00:00.115Z,980.23
2022-09-27T16:05:00.172Z,980.3
2022-09-27T16:10:00.141Z,980.32
2022-09-27T16:15:00.104Z,980.34
2022-09-27T16:20:00.126Z,980.28
2022-09-27T16:25:00.156Z,980.28
2022-09-27T16:30:00.231Z,980.46
2022-09-27T16:35:00.127Z,980.54
2022-09-27T16:40:00.115Z,980.59
2022-09-27T16:45:00.142Z,980.64
2022-09-27T16:50:00.118Z,980.68
2022-09-27T16:55:00.115Z,980.57
2022-09-27T17:00:00.145Z,980.76
2022-09-27T17:05:00.146Z,980.81
2022-09-27T17:10:00.097Z,980.82
2022-09-27T17:15:00.111Z,980.86
2022-09-27T17:20:00.131Z,980.97
2022-09-27T17:25:00.163Z,980.99
2022-09-27T17:30:00.202Z,981.02
2022-09-27T17:35:00.112Z,980.96
2022-09-27T17:40:00.085Z,980.98
2022-09-27T17:45:00.193Z,981.04
2022-09-27T17:50:00.133Z,981.05
2022-09-27T17:55:00.108Z,981.07
2022-09-27T18:00:00.173Z,981.07
2022-09-27T18:05:00.138Z,981.12
2022-09-27T18:10:00.128Z,981.14
2022-09-27T18:15:00.109Z,981.01
2022-09-27T18:20:00.156Z,981.07
2022-09-27T18:25:00.120Z,981.1
2022-09-27T18:30:00.142Z,981.11
2022-09-27T18:35:00.125Z,981.17
2022-09-27T18:40:00.148Z,981.15
2022-09-27T18:45:00.124Z,981.19
2022-09-27T18:50:00.157Z,981.21
2022-09-27T18:55:00.110Z,981.22
2022-09-27T19:00:00.128Z,981.23
2022-09-27T19:05:00.181Z,981.24
2022-09-27T19:10:00.111Z,981.17
2022-09-27T19:15:00.095Z,981.26
2022-09-27T19:20:00.136Z,981.13
2022-09-27T19:25:00.111Z,981.11
2022-09-27T19:30:00.143Z,981.15
2022-09-27T19:35:00.133Z,981.21
2022-09-27T19:40:00.107Z,981.2
2022-09-27T19:45:00.123Z,981.25
2022-09-27T19:50:00.140Z,981.23
2022-09-27T19:55:00.100Z,981.15
2022-09-27T20:00:00.161Z,981.14
2022-09-27T20:05:00.149Z,981.14
2022-09-27T20:10:00.127Z,981.14
2022-09-27T20:15:00.128Z,981.12
2022-09-27T20:20:00.130Z,981.16
2022-09-27T20:25:00.135Z,981.19
2022-09-27T20:30:00.165Z,981.53
2022-09-27T20:35:00.119Z,981.57
2022-09-27T20:40:00.106Z,981.44
2022-09-27T20:45:00.173Z,981.5
2022-09-27T20:50:00.178Z,981.52
2022-09-27T20:55:00.142Z,981.48
2022-09-27T21:00:00.245Z,981.37
2022-09-27T21:05:00.171Z,981.39
2022-09-27T21:10:00.097Z,981.44
2022-09-27T21:15:00.123Z,981.55
2022-09-27T21:20:00.155Z,981.6
2022-09-27T21:25:00.151Z,981.45
2022-09-27T21:30:00.173Z,981.47
2022-09-27T21:35:00.108Z,981.47
2022-09-27T21:40:00.143Z,981.53
2022-09-27T21:45:00.125Z,981.54
2022-09-27T21:50:00.160Z,981.54
2022-09-27T21:55:00.103Z,981.46
2022-09-27T22:00:00.194Z,981.5
2022-09-27T22:05:00.173Z,981.55
2022-09-27T22:10:00.094Z,981.53
2022-09-27T22:15:00.098Z,981.45
2022-09-27T22:20:00.109Z,981.48
2022-09-27T22:25:00.106Z,981.45
2022-09-27T22:30:00.098Z,981.39
2022-09-27T22:35:00.133Z,981.39
2022-09-27T22:40:00.117Z,981.37
2022-09-27T22:45:00.119Z,981.39
2022-09-27T22:50:00.115Z,981.37
2022-09-27T22:55:00.106Z,981.44
2022-09-27T23:00:00.126Z,981.38
2022-09-27T23:05:00.141Z,981.39
2022-09-27T23:10:00.131Z,981.33
2022-09-27T23:15:00.097Z,981.4
2022-09-27T23:20:00.102Z,981.4
2022-09-27T23:25:00.140Z,981.33
2022-09-27T23:30:00.131Z,981.43
2022-09-27T23:35:00.122Z,981.24
2022-09-27T23:40:00.090Z,981.37
2022-09-27T23:45:00.116Z,981.42
2022-09-27T23:50:00.088Z,981.36
2022-09-27T23:55:00.093Z,981.32
